»·PEaware :: AFR90 LFPG-KMIA

AFR90 :: LFPG-KMIA

FLIGHT INFORMATION

Flight Status: Arrived
Operator:
Air France
More flights by this operator :: More flights under this callsign
Pilot: Jerome G. (4242)
Aircraft: BOEING 777-300
(B773)
More flights by this aircraft type
Origin: LFPG Charles-De-Gaulle
France
Destination: KMIA Miami Intl
United States
More flights between these airports :: More routes between these airports
Route: LGL2A LGL UN491 UPALO UN585 REGHI/M084F340 UN480 ETIKI DCT 45N020W 41N030W 38N040W 34N050W DCT AMENO M593 GRATX M329 ZQA FLIPR
File this flight plan on PilotEdge
Remarks:
Altitude:
(Current/Filed)
34,000ft
Speed:
(Current/Filed)
450kts
Departed: 26-Nov-17 10:57 PM
Arrived: 27-Nov-17 09:03 AM
Distance/Time
Traveled:
3977nm/10:06
Distance/Time
To Go:
Arrived

Flight Plot

Page will automatically refresh every two minutes.

Flight plan parsing failed; only flown route is shown


Map Options




Map Legend


Flown Route
Filed Route
Departure Airport
Arrival Airport
Navaid (VOR, NDB)
Fix

Horizontal Profiles

Position Reports

Time Latitude Longitude Heading Altitude Ground
Speed
26-Nov-17 22:08 49.006195 2.591390 265 405ft 0kts
26-Nov-17 22:09 49.006195 2.591390 265 405ft 0kts
26-Nov-17 22:10 49.006195 2.591390 265 405ft 0kts
26-Nov-17 22:11 49.006195 2.591390 265 405ft 0kts
26-Nov-17 22:12 49.006195 2.591390 265 405ft 0kts
26-Nov-17 22:13 49.006195 2.591390 265 405ft 0kts
26-Nov-17 22:14 49.006195 2.591390 265 405ft 0kts
26-Nov-17 22:15 49.006195 2.591390 265 405ft 0kts
26-Nov-17 22:16 49.006195 2.591390 265 405ft 0kts
26-Nov-17 22:17 49.006195 2.591390 265 405ft 0kts
26-Nov-17 22:18 49.006195 2.591390 265 405ft 0kts
26-Nov-17 22:19 49.006195 2.591390 265 405ft 0kts
26-Nov-17 22:20 49.006195 2.591390 265 405ft 0kts
26-Nov-17 22:21 49.006195 2.591390 265 405ft 0kts
26-Nov-17 22:22 49.006195 2.591390 265 405ft 0kts
26-Nov-17 22:23 49.006195 2.591390 265 405ft 0kts
26-Nov-17 22:24 49.006195 2.591390 265 405ft 0kts
26-Nov-17 22:25 49.006195 2.591390 265 405ft 0kts
26-Nov-17 22:26 49.006195 2.591390 265 405ft 0kts
26-Nov-17 22:27 49.006195 2.591390 265 405ft 0kts
26-Nov-17 22:28 49.006195 2.591390 265 405ft 0kts
26-Nov-17 22:29 49.006195 2.591390 265 405ft 0kts
26-Nov-17 22:30 49.006195 2.591390 265 405ft 0kts
26-Nov-17 22:31 49.006195 2.591390 265 405ft 0kts
26-Nov-17 22:32 49.006195 2.591390 265 405ft 0kts
26-Nov-17 22:33 49.006195 2.591390 265 405ft 0kts
26-Nov-17 22:34 49.006195 2.591390 265 405ft 0kts
26-Nov-17 22:35 49.006195 2.591390 265 405ft 0kts
26-Nov-17 22:36 49.006195 2.591390 265 405ft 0kts
26-Nov-17 22:37 49.006195 2.591390 265 405ft 0kts
26-Nov-17 22:38 49.006195 2.591390 265 405ft 0kts
26-Nov-17 22:39 49.006195 2.591390 265 405ft 0kts
26-Nov-17 22:40 49.006195 2.591390 265 405ft 0kts
26-Nov-17 22:41 49.006195 2.591390 265 405ft 0kts
26-Nov-17 22:42 49.006195 2.591390 265 405ft 0kts
26-Nov-17 22:43 49.006195 2.591390 265 405ft 0kts
26-Nov-17 22:44 49.006218 2.591817 265 405ft 2kts
26-Nov-17 22:45 49.006270 2.592797 264 405ft 2kts
26-Nov-17 22:46 49.006318 2.593491 263 405ft 0kts
26-Nov-17 22:47 49.006318 2.593491 263 405ft 0kts
26-Nov-17 22:48 49.006318 2.593491 263 405ft 0kts
26-Nov-17 22:49 49.006318 2.593491 263 405ft 0kts
26-Nov-17 22:50 49.006318 2.593491 263 405ft 0kts
26-Nov-17 22:51 49.006318 2.593490 263 405ft 0kts
26-Nov-17 22:52 49.007258 2.592756 353 405ft 5kts
26-Nov-17 22:53 49.008642 2.590912 261 405ft 8kts
26-Nov-17 22:54 49.008534 2.587632 262 405ft 7kts
26-Nov-17 22:55 49.008300 2.583054 282 405ft 7kts
26-Nov-17 22:56 49.010931 2.582014 356 405ft 10kts
26-Nov-17 22:57 49.014341 2.581559 355 405ft 19kts
26-Nov-17 22:58 49.019084 2.580842 339 405ft 15kts
26-Nov-17 22:59 49.020810 2.576195 266 405ft 12kts
26-Nov-17 23:00 49.020667 2.571261 288 405ft 10kts
26-Nov-17 23:01 49.023215 2.570110 328 405ft 9kts
26-Nov-17 23:02 49.023355 2.564334 264 405ft 70kts
26-Nov-17 23:03 49.019624 2.497678 262 2213ft 178kts
26-Nov-17 23:04 49.015073 2.412671 263 3810ft 234kts
26-Nov-17 23:05 49.012698 2.313692 275 5493ft 236kts
26-Nov-17 23:06 49.027743 2.212511 282 8135ft 251kts
26-Nov-17 23:07 49.042470 2.106274 278 10652ft 265kts
26-Nov-17 23:08 49.049694 1.979906 276 11885ft 333kts
26-Nov-17 23:09 49.056210 1.832365 276 14376ft 358kts
26-Nov-17 23:10 49.062646 1.678753 277 17124ft 369kts
26-Nov-17 23:11 49.056997 1.520299 266 19538ft 387kts
26-Nov-17 23:12 49.042775 1.354515 267 21694ft 400kts
26-Nov-17 23:13 49.017561 1.186289 253 23643ft 422kts
26-Nov-17 23:14 48.964286 1.022919 247 25439ft 438kts
26-Nov-17 23:15 48.906277 0.856646 247 27046ft 449kts
26-Nov-17 23:16 48.846863 0.687555 247 28490ft 459kts
26-Nov-17 23:17 48.800192 0.509182 270 29684ft 451kts
26-Nov-17 23:18 48.802954 0.321178 279 31178ft 442kts
26-Nov-17 23:19 48.815673 0.136624 279 32473ft 439kts
26-Nov-17 23:20 48.826489 -0.046710 278 33785ft 431kts
26-Nov-17 23:21 48.836765 -0.227180 278 34315ft 432kts
26-Nov-17 23:22 48.846414 -0.408773 277 34311ft 432kts
26-Nov-17 23:23 48.855579 -0.591010 277 34307ft 432kts
26-Nov-17 23:24 48.864489 -0.772747 277 34308ft 432kts
26-Nov-17 23:25 48.874254 -0.954296 277 34311ft 432kts
26-Nov-17 23:26 48.883590 -1.136613 277 34316ft 432kts
26-Nov-17 23:27 48.891631 -1.318626 277 34313ft 432kts
26-Nov-17 23:28 48.899519 -1.500630 277 34314ft 432kts
26-Nov-17 23:29 48.907438 -1.683333 277 34314ft 432kts
26-Nov-17 23:30 48.892624 -1.866100 260 34320ft 442kts
26-Nov-17 23:31 48.862141 -2.046637 260 34325ft 443kts
26-Nov-17 23:32 48.831805 -2.228482 260 34325ft 443kts
26-Nov-17 23:33 48.802459 -2.409714 260 34325ft 443kts
26-Nov-17 23:34 48.772744 -2.590877 260 34328ft 443kts
26-Nov-17 23:35 48.741666 -2.772346 259 34340ft 444kts
26-Nov-17 23:36 48.710545 -2.952969 260 34344ft 443kts
26-Nov-17 23:37 48.687936 -3.135214 264 34347ft 441kts
26-Nov-17 23:38 48.666204 -3.318332 263 34345ft 441kts
26-Nov-17 23:39 48.643860 -3.500748 264 34349ft 441kts
26-Nov-17 23:40 48.622189 -3.684298 263 34353ft 443kts
26-Nov-17 23:41 48.599652 -3.866174 263 34366ft 444kts
26-Nov-17 23:42 48.576524 -4.049238 262 34375ft 444kts
26-Nov-17 23:43 48.553018 -4.232699 262 34377ft 444kts
26-Nov-17 23:44 48.529285 -4.415406 262 34376ft 444kts
26-Nov-17 23:45 48.505332 -4.597547 262 34377ft 443kts
26-Nov-17 23:46 48.480982 -4.780169 262 34375ft 443kts
26-Nov-17 23:47 48.456443 -4.961980 262 34373ft 443kts
26-Nov-17 23:48 48.431613 -5.143604 262 34385ft 444kts
26-Nov-17 23:49 48.406332 -5.326253 261 34384ft 445kts
26-Nov-17 23:50 48.380828 -5.508267 261 34381ft 445kts
26-Nov-17 23:51 48.355036 -5.690099 261 34378ft 447kts
26-Nov-17 23:52 48.328748 -5.873204 261 34374ft 448kts
26-Nov-17 23:53 48.302213 -6.055883 261 34369ft 448kts
26-Nov-17 23:54 48.275346 -6.238547 261 34371ft 448kts
26-Nov-17 23:55 48.248142 -6.421396 261 34328ft 447kts
26-Nov-17 23:56 48.220769 -6.603260 261 34324ft 447kts
26-Nov-17 23:57 48.193138 -6.784743 260 34318ft 446kts
26-Nov-17 23:58 48.165176 -6.966327 260 34315ft 446kts
26-Nov-17 23:59 48.137036 -7.147032 260 34312ft 446kts
27-Nov-17 00:00 48.108816 -7.326270 260 34310ft 446kts
27-Nov-17 00:01 48.079907 -7.507876 260 34308ft 448kts
27-Nov-17 00:02 48.051298 -7.688878 260 34306ft 448kts
27-Nov-17 00:03 48.021393 -7.870478 260 34303ft 449kts
27-Nov-17 00:04 48.000116 -8.052635 271 34297ft 443kts
27-Nov-17 00:05 48.000107 -8.236223 273 34290ft 442kts
27-Nov-17 00:06 48.001123 -8.420214 272 34273ft 442kts
27-Nov-17 00:07 48.000535 -8.603406 272 34278ft 441kts
27-Nov-17 00:08 47.991227 -8.786085 259 34272ft 449kts
27-Nov-17 00:09 47.955374 -8.965679 256 34270ft 451kts
27-Nov-17 00:10 47.917610 -9.143356 256 34272ft 451kts
27-Nov-17 00:11 47.880369 -9.321447 256 34273ft 451kts
27-Nov-17 00:12 47.843125 -9.500348 256 34266ft 451kts
27-Nov-17 00:13 47.805210 -9.678324 255 34304ft 452kts
27-Nov-17 00:14 47.766921 -9.856167 255 34306ft 452kts
27-Nov-17 00:15 47.728167 -10.034477 255 34309ft 452kts
27-Nov-17 00:16 47.689305 -10.211769 255 34311ft 452kts
27-Nov-17 00:17 47.650046 -10.389362 255 34260ft 451kts
27-Nov-17 00:18 47.610697 -10.565888 255 34277ft 451kts
27-Nov-17 00:19 47.571113 -10.741955 254 34278ft 451kts
27-Nov-17 00:20 47.531370 -10.917314 254 34280ft 450kts
27-Nov-17 00:21 47.498023 -11.063353 254 34280ft 450kts
27-Nov-17 00:22 47.451034 -11.267384 254 34282ft 450kts
27-Nov-17 00:23 47.410263 -11.442890 254 34282ft 451kts
27-Nov-17 00:24 47.369379 -11.617526 254 34284ft 451kts
27-Nov-17 00:25 47.328203 -11.791916 254 34285ft 450kts
27-Nov-17 00:26 47.293596 -11.937471 253 34285ft 450kts
27-Nov-17 00:27 47.245032 -12.140118 253 34285ft 450kts
27-Nov-17 00:28 47.210168 -12.284398 253 34286ft 450kts
27-Nov-17 00:29 47.167991 -12.457737 253 34287ft 448kts
27-Nov-17 00:30 47.125783 -12.629876 253 34287ft 448kts
27-Nov-17 00:31 47.083410 -12.801372 253 34288ft 448kts
27-Nov-17 00:32 47.033442 -13.001943 253 34289ft 448kts
27-Nov-17 00:33 46.997660 -13.144486 252 34289ft 448kts
27-Nov-17 00:34 46.954542 -13.315073 252 34289ft 446kts
27-Nov-17 00:35 46.911082 -13.485737 252 34289ft 447kts
27-Nov-17 00:36 46.867540 -13.655454 252 34289ft 446kts
27-Nov-17 00:37 46.823809 -13.824690 252 34288ft 446kts
27-Nov-17 00:38 46.779684 -13.994154 252 34288ft 445kts
27-Nov-17 00:39 46.735524 -14.162542 252 34288ft 445kts
27-Nov-17 00:40 46.691111 -14.330682 251 34288ft 445kts
27-Nov-17 00:41 46.646526 -14.498264 251 34288ft 445kts
27-Nov-17 00:42 46.601610 -14.665915 251 34287ft 445kts
27-Nov-17 00:43 46.556418 -14.833373 251 34287ft 446kts
27-Nov-17 00:44 46.510764 -15.001360 251 34286ft 446kts
27-Nov-17 00:45 46.465001 -15.168570 251 34285ft 446kts
27-Nov-17 00:46 46.418857 -15.335998 251 34285ft 446kts
27-Nov-17 00:47 46.372676 -15.502427 250 34284ft 445kts
27-Nov-17 00:48 46.326271 -15.668458 250 34248ft 445kts
27-Nov-17 00:49 46.279536 -15.834547 250 34246ft 444kts
27-Nov-17 00:50 46.232817 -15.999458 250 34243ft 444kts
27-Nov-17 00:51 46.186026 -16.163527 250 34241ft 444kts
27-Nov-17 00:52 46.138638 -16.328547 249 34238ft 445kts
27-Nov-17 00:53 46.091087 -16.493086 249 34235ft 445kts
27-Nov-17 00:54 46.043153 -16.657755 249 34233ft 447kts
27-Nov-17 00:55 45.994692 -16.823186 249 34230ft 448kts
27-Nov-17 00:56 45.946002 -16.988291 249 34227ft 450kts
27-Nov-17 00:57 45.896911 -17.153621 249 34228ft 451kts
27-Nov-17 00:58 45.847319 -17.319556 249 34227ft 451kts
27-Nov-17 00:59 45.797607 -17.484802 248 34224ft 452kts
27-Nov-17 01:00 45.747644 -17.649800 248 34221ft 452kts
27-Nov-17 01:01 45.697449 -17.814480 248 34218ft 452kts
27-Nov-17 01:02 45.646951 -17.979087 248 34214ft 452kts
27-Nov-17 01:03 45.596201 -18.143447 248 34211ft 453kts
27-Nov-17 01:04 45.545046 -18.308058 248 34208ft 453kts
27-Nov-17 01:05 45.493731 -18.472142 248 34204ft 454kts
27-Nov-17 01:06 45.442007 -18.636443 248 34200ft 456kts
27-Nov-17 01:07 45.389758 -18.801378 247 34196ft 456kts
27-Nov-17 01:08 45.337319 -18.965858 247 34193ft 457kts
27-Nov-17 01:09 45.284376 -19.130930 247 34189ft 458kts
27-Nov-17 01:10 45.231296 -19.295277 247 34181ft 459kts
27-Nov-17 01:11 45.178029 -19.459224 247 34177ft 459kts
27-Nov-17 01:12 45.124427 -19.624010 247 34173ft 459kts
27-Nov-17 01:13 45.070518 -19.788081 246 34170ft 460kts
27-Nov-17 01:14 45.016057 -19.951747 246 34166ft 461kts
27-Nov-17 01:15 44.961073 -20.116111 246 34162ft 463kts
27-Nov-17 01:16 44.905701 -20.279831 246 34158ft 463kts
27-Nov-17 01:17 44.849996 -20.443459 246 34160ft 463kts
27-Nov-17 01:18 44.795030 -20.608134 246 34156ft 464kts
27-Nov-17 01:19 44.739378 -20.771730 246 34152ft 465kts
27-Nov-17 01:20 44.683254 -20.935207 246 34074ft 465kts
27-Nov-17 01:21 44.626874 -21.098373 245 34052ft 465kts
27-Nov-17 01:22 44.570181 -21.261447 245 34050ft 466kts
27-Nov-17 01:23 44.513180 -21.424420 245 34048ft 467kts
27-Nov-17 01:24 44.455645 -21.587962 245 34046ft 467kts
27-Nov-17 01:25 44.397947 -21.750925 245 34044ft 468kts
27-Nov-17 01:26 44.339934 -21.913820 245 34068ft 469kts
27-Nov-17 01:27 44.281453 -22.077092 245 34077ft 469kts
27-Nov-17 01:28 44.222848 -22.239680 244 34082ft 469kts
27-Nov-17 01:29 44.163884 -22.402322 244 34080ft 469kts
27-Nov-17 01:30 44.105088 -22.563551 244 34145ft 469kts
27-Nov-17 01:31 44.045867 -22.725024 244 34143ft 469kts
27-Nov-17 01:32 43.986198 -22.886753 243 34138ft 471kts
27-Nov-17 01:33 43.925800 -23.049477 243 34135ft 476kts
27-Nov-17 01:34 43.865041 -23.212255 243 34131ft 476kts
27-Nov-17 01:35 43.803836 -23.375241 243 34127ft 476kts
27-Nov-17 01:36 43.742692 -23.537137 243 34123ft 475kts
27-Nov-17 01:37 43.681188 -23.699051 243 34121ft 474kts
27-Nov-17 01:38 43.619704 -23.859985 243 34117ft 474kts
27-Nov-17 01:39 43.557981 -24.020625 242 34114ft 474kts
27-Nov-17 01:40 43.495990 -24.181051 242 34111ft 475kts
27-Nov-17 01:41 43.433601 -24.341591 242 34107ft 477kts
27-Nov-17 01:42 43.370788 -24.502294 242 34103ft 478kts
27-Nov-17 01:43 43.307571 -24.663151 242 34100ft 478kts
27-Nov-17 01:44 43.244165 -24.823568 242 34097ft 479kts
27-Nov-17 01:45 43.180426 -24.983927 242 34094ft 480kts
27-Nov-17 01:46 43.116160 -25.144701 241 34091ft 480kts
27-Nov-17 01:47 43.051835 -25.304754 241 34024ft 480kts
27-Nov-17 01:48 42.987219 -25.464596 241 34022ft 481kts
27-Nov-17 01:49 42.922063 -25.624902 241 34021ft 482kts
27-Nov-17 01:50 42.856997 -25.784105 241 34020ft 483kts
27-Nov-17 01:51 42.791339 -25.943873 241 34019ft 484kts
27-Nov-17 01:52 42.725144 -26.104115 240 34019ft 484kts
27-Nov-17 01:53 42.658880 -26.263556 240 34017ft 485kts
27-Nov-17 01:54 42.592356 -26.422785 240 34015ft 485kts
27-Nov-17 01:55 42.525364 -26.582268 240 34013ft 485kts
27-Nov-17 01:56 42.458371 -26.740890 240 34013ft 485kts
27-Nov-17 01:57 42.390986 -26.899583 240 34012ft 485kts
27-Nov-17 01:58 42.323645 -27.057365 239 34012ft 485kts
27-Nov-17 01:59 42.256039 -27.214840 239 34027ft 485kts
27-Nov-17 02:00 42.188179 -27.372101 239 34026ft 486kts
27-Nov-17 02:01 42.119951 -27.529385 239 34025ft 487kts
27-Nov-17 02:02 42.051398 -27.686581 239 34024ft 488kts
27-Nov-17 02:03 41.982325 -27.844136 239 34023ft 489kts
27-Nov-17 02:04 41.913205 -28.000967 238 34022ft 488kts
27-Nov-17 02:05 41.843852 -28.157516 238 34011ft 488kts
27-Nov-17 02:06 41.774066 -28.314240 238 34011ft 488kts
27-Nov-17 02:07 41.704163 -28.470343 238 34010ft 489kts
27-Nov-17 02:08 41.634017 -28.626213 238 34010ft 490kts
27-Nov-17 02:09 41.563356 -28.782419 238 34038ft 490kts
27-Nov-17 02:10 41.492898 -28.937429 238 34043ft 490kts
27-Nov-17 02:11 41.421998 -29.092528 237 34044ft 490kts
27-Nov-17 02:12 41.350657 -29.247817 237 34045ft 490kts
27-Nov-17 02:13 41.279389 -29.402182 237 34047ft 490kts
27-Nov-17 02:14 41.207931 -29.556185 237 34048ft 490kts
27-Nov-17 02:15 41.136298 -29.710661 237 34050ft 490kts
27-Nov-17 02:16 41.064244 -29.863912 236 34052ft 490kts
27-Nov-17 02:17 40.995962 -30.019938 246 34054ft 492kts
27-Nov-17 02:18 40.951266 -30.191189 251 34056ft 490kts
27-Nov-17 02:19 40.909298 -30.362613 250 34059ft 490kts
27-Nov-17 02:20 40.867148 -30.533181 251 34061ft 490kts
27-Nov-17 02:21 40.824396 -30.704477 250 34062ft 490kts
27-Nov-17 02:22 40.781297 -30.874612 250 34064ft 489kts
27-Nov-17 02:23 40.737775 -31.045018 249 34066ft 489kts
27-Nov-17 02:24 40.694233 -31.214320 249 34080ft 488kts
27-Nov-17 02:25 40.650494 -31.383140 249 34080ft 487kts
27-Nov-17 02:26 40.606442 -31.552021 249 34080ft 486kts
27-Nov-17 02:27 40.562355 -31.719886 249 34081ft 486kts
27-Nov-17 02:28 40.518086 -31.887348 249 34081ft 485kts
27-Nov-17 02:29 40.473436 -32.055027 249 34080ft 485kts
27-Nov-17 02:30 40.429001 -32.220800 248 34080ft 484kts
27-Nov-17 02:31 40.384171 -32.386994 248 34080ft 483kts
27-Nov-17 02:32 40.338974 -32.553396 248 34080ft 483kts
27-Nov-17 02:33 40.293751 -32.718788 248 34080ft 482kts
27-Nov-17 02:34 40.248380 -32.883658 248 34080ft 481kts
27-Nov-17 02:35 40.202715 -33.048525 248 34079ft 480kts
27-Nov-17 02:36 40.157047 -33.212355 248 34079ft 479kts
27-Nov-17 02:37 40.111257 -33.375572 248 34078ft 478kts
27-Nov-17 02:38 40.065184 -33.538761 248 34077ft 477kts
27-Nov-17 02:39 40.019103 -33.700955 248 34077ft 477kts
27-Nov-17 02:40 39.972990 -33.862253 248 34076ft 476kts
27-Nov-17 02:41 39.934125 -33.997429 248 34075ft 476kts
27-Nov-17 02:42 39.879684 -34.185613 248 34074ft 476kts
27-Nov-17 02:43 39.832830 -34.346495 248 34074ft 476kts
27-Nov-17 02:44 39.793441 -34.480994 248 34073ft 476kts
27-Nov-17 02:45 39.738235 -34.668355 248 34072ft 474kts
27-Nov-17 02:46 39.698805 -34.801370 249 34071ft 473kts
27-Nov-17 02:47 39.651375 -34.960506 249 34070ft 473kts
27-Nov-17 02:48 39.603636 -35.119728 249 34069ft 472kts
27-Nov-17 02:49 39.555870 -35.278159 249 34625ft 471kts
27-Nov-17 02:50 39.508672 -35.433702 249 35706ft 469kts
27-Nov-17 02:51 39.460446 -35.591744 249 36038ft 469kts
27-Nov-17 02:52 39.412372 -35.748420 249 36037ft 469kts
27-Nov-17 02:53 39.364071 -35.904877 249 36035ft 469kts
27-Nov-17 02:54 39.315447 -36.061494 249 36033ft 468kts
27-Nov-17 02:55 39.266905 -36.216991 249 36031ft 467kts
27-Nov-17 02:56 39.218193 -36.372186 249 36031ft 467kts
27-Nov-17 02:57 39.169145 -36.527500 249 36036ft 466kts
27-Nov-17 02:58 39.120132 -36.681872 249 36053ft 466kts
27-Nov-17 02:59 39.070957 -36.835930 249 36051ft 465kts
27-Nov-17 03:00 39.021652 -36.989501 249 36049ft 466kts
27-Nov-17 03:01 38.972081 -37.143083 249 36047ft 465kts
27-Nov-17 03:02 38.922199 -37.296778 249 36045ft 465kts
27-Nov-17 03:03 38.872303 -37.449688 249 36043ft 464kts
27-Nov-17 03:04 38.822231 -37.602316 249 36032ft 465kts
27-Nov-17 03:05 38.771820 -37.755155 249 36029ft 464kts
27-Nov-17 03:06 38.721396 -37.907221 248 36027ft 464kts
27-Nov-17 03:07 38.670709 -38.059268 248 36024ft 465kts
27-Nov-17 03:08 38.619696 -38.211485 248 36022ft 464kts
27-Nov-17 03:09 38.568667 -38.362951 248 36019ft 464kts
27-Nov-17 03:10 38.517656 -38.513576 248 36016ft 464kts
27-Nov-17 03:11 38.466025 -38.665262 248 36013ft 465kts
27-Nov-17 03:12 38.414323 -38.816327 248 36007ft 466kts
27-Nov-17 03:13 38.362364 -38.967386 248 36004ft 466kts
27-Nov-17 03:14 38.310016 -39.118779 247 36002ft 466kts
27-Nov-17 03:15 38.257619 -39.269550 247 35999ft 467kts
27-Nov-17 03:16 38.204961 -39.420298 247 35996ft 467kts
27-Nov-17 03:17 38.151926 -39.571361 247 35994ft 467kts
27-Nov-17 03:18 38.099178 -39.721982 247 35993ft 467kts
27-Nov-17 03:19 38.045501 -39.872635 247 35988ft 468kts
27-Nov-17 03:20 37.992199 -40.022237 247 35986ft 468kts
27-Nov-17 03:21 37.940591 -40.173314 247 35982ft 467kts
27-Nov-17 03:22 37.888460 -40.324546 247 36008ft 467kts
27-Nov-17 03:23 37.836847 -40.475186 248 36005ft 467kts
27-Nov-17 03:24 37.785230 -40.625564 248 36002ft 466kts
27-Nov-17 03:25 37.733052 -40.775913 248 36000ft 465kts
27-Nov-17 03:26 37.680839 -40.925383 248 35996ft 466kts
27-Nov-17 03:27 37.628449 -41.074611 248 35997ft 465kts
27-Nov-17 03:28 37.575768 -41.223937 248 35996ft 465kts
27-Nov-17 03:29 37.523052 -41.372593 248 35993ft 465kts
27-Nov-17 03:30 37.470304 -41.520616 248 35990ft 465kts
27-Nov-17 03:31 37.417082 -41.669243 248 35988ft 465kts
27-Nov-17 03:32 37.363852 -41.817205 247 35986ft 465kts
27-Nov-17 03:33 37.310362 -41.965092 247 35983ft 465kts
27-Nov-17 03:34 37.256605 -42.113015 248 35980ft 463kts
27-Nov-17 03:35 37.203094 -42.259571 248 35978ft 462kts
27-Nov-17 03:36 37.149475 -42.405757 248 35973ft 462kts
27-Nov-17 03:37 37.095542 -42.552035 248 35974ft 461kts
27-Nov-17 03:38 37.041676 -42.697469 248 35972ft 460kts
27-Nov-17 03:39 36.987551 -42.842908 248 35970ft 459kts
27-Nov-17 03:40 36.933717 -42.986895 248 35959ft 459kts
27-Nov-17 03:41 36.879577 -43.131039 248 35957ft 458kts
27-Nov-17 03:42 36.825155 -43.275258 248 35954ft 458kts
27-Nov-17 03:43 36.770838 -43.418594 248 35953ft 457kts
27-Nov-17 03:44 36.716389 -43.561512 248 35951ft 457kts
27-Nov-17 03:45 36.661697 -43.704456 248 35949ft 456kts
27-Nov-17 03:46 36.607063 -43.846639 248 35947ft 455kts
27-Nov-17 03:47 36.552365 -43.988341 248 35946ft 454kts
27-Nov-17 03:48 36.497503 -44.129795 249 35944ft 452kts
27-Nov-17 03:49 36.442861 -44.270122 249 35943ft 452kts
27-Nov-17 03:50 36.388156 -44.409923 248 35941ft 452kts
27-Nov-17 03:51 36.333059 -44.550134 248 35940ft 450kts
27-Nov-17 03:52 36.278111 -44.689364 248 35939ft 449kts
27-Nov-17 03:53 36.223192 -44.827920 248 35938ft 448kts
27-Nov-17 03:54 36.168153 -44.966182 248 35937ft 446kts
27-Nov-17 03:55 36.113398 -45.103144 248 35935ft 443kts
27-Nov-17 03:56 36.058812 -45.239147 248 35935ft 441kts
27-Nov-17 03:57 36.004177 -45.374632 249 35933ft 438kts
27-Nov-17 03:58 35.949860 -45.508790 249 35933ft 436kts
27-Nov-17 03:59 35.895644 -45.642167 249 35932ft 435kts
27-Nov-17 04:00 35.841463 -45.774909 249 35932ft 434kts
27-Nov-17 04:01 35.787123 -45.907505 249 35931ft 433kts
27-Nov-17 04:02 35.732496 -46.040260 249 35930ft 433kts
27-Nov-17 04:03 35.677972 -46.172233 249 35930ft 433kts
27-Nov-17 04:04 35.623371 -46.303866 249 35930ft 431kts
27-Nov-17 04:05 35.568650 -46.435261 249 35929ft 431kts
27-Nov-17 04:06 35.514087 -46.565808 249 35928ft 430kts
27-Nov-17 04:07 35.459515 -46.695799 249 35928ft 428kts
27-Nov-17 04:08 35.404794 -46.825637 249 35929ft 427kts
27-Nov-17 04:09 35.350279 -46.954510 249 35928ft 425kts
27-Nov-17 04:10 35.296004 -47.082315 249 35928ft 424kts
27-Nov-17 04:11 35.241448 -47.210310 248 35929ft 423kts
27-Nov-17 04:12 35.187178 -47.337107 249 35930ft 415kts
27-Nov-17 04:13 35.134495 -47.459784 249 35928ft 405kts
27-Nov-17 04:14 35.081913 -47.581770 249 35928ft 406kts
27-Nov-17 04:15 35.029022 -47.704028 249 35929ft 406kts
27-Nov-17 04:16 34.976270 -47.825528 249 35930ft 406kts
27-Nov-17 04:17 34.923118 -47.947519 248 35930ft 406kts
27-Nov-17 04:18 34.870134 -48.068682 248 35929ft 402kts
27-Nov-17 04:19 34.817548 -48.188506 248 35936ft 403kts
27-Nov-17 04:20 34.764708 -48.308489 248 35937ft 403kts
27-Nov-17 04:21 34.711689 -48.428462 248 35937ft 403kts
27-Nov-17 04:22 34.658538 -48.548312 248 35938ft 403kts
27-Nov-17 04:23 34.605122 -48.668343 248 35938ft 402kts
27-Nov-17 04:24 34.551853 -48.787626 248 35939ft 402kts
27-Nov-17 04:25 34.498314 -48.907116 248 35940ft 401kts
27-Nov-17 04:26 34.444910 -49.025872 247 35940ft 402kts
27-Nov-17 04:27 34.391485 -49.144274 247 35950ft 400kts
27-Nov-17 04:28 34.337879 -49.262676 247 35952ft 400kts
27-Nov-17 04:29 34.284318 -49.380584 247 35953ft 401kts
27-Nov-17 04:30 34.230778 -49.498061 247 35953ft 400kts
27-Nov-17 04:31 34.176797 -49.616086 247 35954ft 400kts
27-Nov-17 04:32 34.123147 -49.733727 247 35955ft 401kts
27-Nov-17 04:33 34.068870 -49.851305 247 35956ft 401kts
27-Nov-17 04:34 34.014292 -49.969123 247 35957ft 401kts
27-Nov-17 04:35 33.961590 -50.087265 248 35958ft 400kts
27-Nov-17 04:36 33.909696 -50.205764 248 35959ft 400kts
27-Nov-17 04:37 33.857343 -50.324503 248 35960ft 401kts
27-Nov-17 04:38 33.805433 -50.443212 248 35989ft 401kts
27-Nov-17 04:39 33.753391 -50.561701 248 36021ft 401kts
27-Nov-17 04:40 33.701083 -50.679905 247 36021ft 401kts
27-Nov-17 04:41 33.648544 -50.798127 247 36021ft 402kts
27-Nov-17 04:42 33.595943 -50.916074 247 36021ft 401kts
27-Nov-17 04:43 33.543080 -51.034206 247 36022ft 401kts
27-Nov-17 04:44 33.490365 -51.151613 247 36022ft 400kts
27-Nov-17 04:45 33.437524 -51.268914 247 36022ft 400kts
27-Nov-17 04:46 33.384492 -51.386247 247 36023ft 400kts
27-Nov-17 04:47 33.331439 -51.503241 246 36023ft 401kts
27-Nov-17 04:48 33.278230 -51.620197 246 36024ft 400kts
27-Nov-17 04:49 33.224931 -51.737014 246 36023ft 400kts
27-Nov-17 04:50 33.171615 -51.853402 246 36015ft 401kts
27-Nov-17 04:51 33.117910 -51.970288 246 36014ft 402kts
27-Nov-17 04:52 33.063944 -52.087374 246 36015ft 401kts
27-Nov-17 04:53 33.010116 -52.203778 246 36015ft 402kts
27-Nov-17 04:54 32.955828 -52.320792 246 36083ft 403kts
27-Nov-17 04:55 32.901438 -52.437651 246 36097ft 404kts
27-Nov-17 04:56 32.846890 -52.554474 246 36097ft 404kts
27-Nov-17 04:57 32.791951 -52.671753 245 36097ft 405kts
27-Nov-17 04:58 32.737039 -52.788620 245 35999ft 405kts
27-Nov-17 04:59 32.681938 -52.905478 245 35975ft 407kts
27-Nov-17 05:00 32.626729 -53.022226 245 35984ft 406kts
27-Nov-17 05:01 32.571401 -53.138823 245 35987ft 406kts
27-Nov-17 05:02 32.525132 -53.236049 245 35989ft 406kts
27-Nov-17 05:03 32.469383 -53.352860 245 35991ft 407kts
27-Nov-17 05:04 32.413542 -53.469495 245 35993ft 408kts
27-Nov-17 05:05 32.348036 -53.605860 244 35995ft 410kts
27-Nov-17 05:06 32.300821 -53.703822 244 35997ft 410kts
27-Nov-17 05:07 32.244227 -53.820932 244 36000ft 411kts
27-Nov-17 05:08 32.187346 -53.938230 244 36002ft 412kts
27-Nov-17 05:09 32.130042 -54.056039 244 36004ft 414kts
27-Nov-17 05:10 32.072909 -54.173132 244 36006ft 413kts
27-Nov-17 05:11 32.015628 -54.290161 244 36008ft 412kts
27-Nov-17 05:12 31.958054 -54.407421 244 36015ft 414kts
27-Nov-17 05:13 31.900450 -54.524424 244 36042ft 413kts
27-Nov-17 05:14 31.842660 -54.641360 243 36043ft 414kts
27-Nov-17 05:15 31.784637 -54.758426 243 36045ft 413kts
27-Nov-17 05:16 31.726683 -54.874999 243 36047ft 413kts
27-Nov-17 05:17 31.668641 -54.991396 243 36049ft 413kts
27-Nov-17 05:18 31.610333 -55.107963 243 36050ft 413kts
27-Nov-17 05:19 31.552119 -55.223992 243 36052ft 413kts
27-Nov-17 05:20 31.493827 -55.339817 243 36054ft 412kts
27-Nov-17 05:21 31.435605 -55.455186 243 36055ft 412kts
27-Nov-17 05:22 31.377241 -55.570435 243 36057ft 412kts
27-Nov-17 05:23 31.318588 -55.685926 243 36059ft 412kts
27-Nov-17 05:24 31.260006 -55.800935 243 36060ft 412kts
27-Nov-17 05:25 31.201206 -55.916028 243 36062ft 413kts
27-Nov-17 05:26 31.142090 -56.031400 242 36063ft 412kts
27-Nov-17 05:27 31.083301 -56.145794 242 36065ft 412kts
27-Nov-17 05:28 31.024359 -56.260157 242 36062ft 412kts
27-Nov-17 05:29 30.965077 -56.374802 242 36064ft 412kts
27-Nov-17 05:30 30.906022 -56.488691 242 36065ft 413kts
27-Nov-17 05:31 30.846606 -56.602971 242 36065ft 413kts
27-Nov-17 05:32 30.786867 -56.717491 242 36068ft 413kts
27-Nov-17 05:33 30.727231 -56.831495 242 36069ft 413kts
27-Nov-17 05:34 30.667522 -56.945311 242 36071ft 412kts
27-Nov-17 05:35 30.607580 -57.059242 242 36072ft 413kts
27-Nov-17 05:36 30.547660 -57.172803 242 36074ft 413kts
27-Nov-17 05:37 30.487623 -57.286260 242 36075ft 413kts
27-Nov-17 05:38 30.427288 -57.399952 242 36077ft 413kts
27-Nov-17 05:39 30.367146 -57.512975 242 36078ft 412kts
27-Nov-17 05:40 30.306973 -57.625700 242 36079ft 414kts
27-Nov-17 05:41 30.246218 -57.739239 242 36079ft 414kts
27-Nov-17 05:42 30.185521 -57.852291 242 36081ft 415kts
27-Nov-17 05:43 30.124648 -57.965375 242 36082ft 415kts
27-Nov-17 05:44 30.063468 -58.078710 242 36084ft 415kts
27-Nov-17 05:45 30.002389 -58.191541 242 36085ft 415kts
27-Nov-17 05:46 29.941229 -58.304230 242 36085ft 415kts
27-Nov-17 05:47 29.879732 -58.417178 242 36087ft 415kts
27-Nov-17 05:48 29.818341 -58.529635 242 36088ft 415kts
27-Nov-17 05:49 29.756860 -58.641958 242 36089ft 415kts
27-Nov-17 05:50 29.695341 -58.754020 242 36090ft 415kts
27-Nov-17 05:51 29.633644 -58.866109 242 36091ft 415kts
27-Nov-17 05:52 29.571728 -58.978283 242 36091ft 415kts
27-Nov-17 05:53 29.509931 -59.089938 242 36092ft 415kts
27-Nov-17 05:54 29.448017 -59.201500 242 36093ft 414kts
27-Nov-17 05:55 29.385957 -59.313024 241 36094ft 413kts
27-Nov-17 05:56 29.324078 -59.423920 241 36094ft 413kts
27-Nov-17 05:57 29.262105 -59.534689 241 36096ft 413kts
27-Nov-17 05:58 29.199815 -59.645731 241 36097ft 414kts
27-Nov-17 05:59 29.137704 -59.756653 241 36096ft 414kts
27-Nov-17 06:00 29.075466 -59.866784 241 36098ft 416kts
27-Nov-17 06:01 29.012882 -59.978295 245 36098ft 412kts
27-Nov-17 06:02 28.987794 -60.103339 265 36102ft 405kts
27-Nov-17 06:03 28.977724 -60.231189 264 36103ft 405kts
27-Nov-17 06:04 28.965888 -60.359334 264 36103ft 405kts
27-Nov-17 06:05 28.954227 -60.487048 264 36104ft 405kts
27-Nov-17 06:06 28.942206 -60.614718 264 36105ft 405kts
27-Nov-17 06:07 28.929885 -60.742733 264 36106ft 405kts
27-Nov-17 06:08 28.917443 -60.870085 263 36107ft 404kts
27-Nov-17 06:09 28.904895 -60.997337 263 36105ft 404kts
27-Nov-17 06:10 28.892235 -61.124556 263 36108ft 404kts
27-Nov-17 06:11 28.879464 -61.251519 263 36108ft 403kts
27-Nov-17 06:12 28.866538 -61.378854 263 36127ft 403kts
27-Nov-17 06:13 28.853541 -61.505706 263 36132ft 403kts
27-Nov-17 06:14 28.840426 -61.632552 263 36130ft 403kts
27-Nov-17 06:15 28.827140 -61.759797 263 36131ft 403kts
27-Nov-17 06:16 28.813778 -61.886621 262 36130ft 403kts
27-Nov-17 06:17 28.800301 -62.013394 262 36131ft 403kts
27-Nov-17 06:18 28.786683 -62.140335 262 36132ft 402kts
27-Nov-17 06:19 28.772999 -62.266758 262 36132ft 402kts
27-Nov-17 06:20 28.759241 -62.392750 262 36133ft 402kts
27-Nov-17 06:21 28.745284 -62.519505 262 36133ft 402kts
27-Nov-17 06:22 28.731288 -62.645509 262 36134ft 401kts
27-Nov-17 06:23 28.717171 -62.771482 262 36134ft 401kts
27-Nov-17 06:24 28.702905 -62.897630 262 36134ft 400kts
27-Nov-17 06:25 28.688605 -63.023215 262 36134ft 400kts
27-Nov-17 06:26 28.674147 -63.148896 262 36137ft 400kts
27-Nov-17 06:27 28.659568 -63.274805 262 36136ft 400kts
27-Nov-17 06:28 28.644863 -63.400531 262 36137ft 401kts
27-Nov-17 06:29 28.630050 -63.526323 261 36138ft 402kts
27-Nov-17 06:30 28.615059 -63.652478 261 36138ft 402kts
27-Nov-17 06:31 28.599975 -63.778515 261 36138ft 402kts
27-Nov-17 06:32 28.584743 -63.904781 261 36137ft 403kts
27-Nov-17 06:33 28.569330 -64.031495 261 36137ft 403kts
27-Nov-17 06:34 28.553837 -64.157752 261 36138ft 403kts
27-Nov-17 06:35 28.538249 -64.283904 261 36138ft 402kts
27-Nov-17 06:36 28.522523 -64.410189 261 36138ft 402kts
27-Nov-17 06:37 28.506729 -64.536018 261 36138ft 402kts
27-Nov-17 06:38 28.490798 -64.661994 261 36137ft 401kts
27-Nov-17 06:39 28.474843 -64.787321 261 36149ft 400kts
27-Nov-17 06:40 28.458819 -64.912068 261 36149ft 400kts
27-Nov-17 06:41 28.442594 -65.037601 261 36951ft 396kts
27-Nov-17 06:42 28.426658 -65.159964 261 38131ft 392kts
27-Nov-17 06:43 28.410650 -65.281938 261 38147ft 390kts
27-Nov-17 06:44 28.394482 -65.404268 261 38147ft 392kts
27-Nov-17 06:45 28.378221 -65.526457 261 38146ft 391kts
27-Nov-17 06:46 28.361801 -65.648996 261 38145ft 392kts
27-Nov-17 06:47 28.345294 -65.771335 261 38145ft 393kts
27-Nov-17 06:48 28.328659 -65.893769 261 38144ft 393kts
27-Nov-17 06:49 28.311862 -66.016555 261 38143ft 393kts
27-Nov-17 06:50 28.295071 -66.138455 261 38141ft 393kts
27-Nov-17 06:51 28.278105 -66.260813 261 38140ft 393kts
27-Nov-17 06:52 28.260988 -66.383449 260 38140ft 392kts
27-Nov-17 06:53 28.243859 -66.505334 260 38139ft 392kts
27-Nov-17 06:54 28.226633 -66.627101 260 38138ft 390kts
27-Nov-17 06:55 28.209276 -66.748965 260 38138ft 391kts
27-Nov-17 06:56 28.191899 -66.870195 260 38137ft 389kts
27-Nov-17 06:57 28.174435 -66.991253 260 38136ft 389kts
27-Nov-17 06:58 28.156809 -67.112664 260 38135ft 389kts
27-Nov-17 06:59 28.139129 -67.233656 260 38138ft 389kts
27-Nov-17 07:00 28.121425 -67.354058 260 38137ft 389kts
27-Nov-17 07:01 28.103472 -67.475395 260 38136ft 390kts
27-Nov-17 07:02 28.085424 -67.596608 259 38135ft 391kts
27-Nov-17 07:03 28.067211 -67.718178 259 38134ft 391kts
27-Nov-17 07:04 28.048911 -67.839575 259 38133ft 392kts
27-Nov-17 07:05 28.030492 -67.961008 259 38132ft 392kts
27-Nov-17 07:06 28.011908 -68.082793 259 38131ft 392kts
27-Nov-17 07:07 27.993401 -68.204165 260 38130ft 392kts
27-Nov-17 07:08 27.974750 -68.325493 259 38129ft 392kts
27-Nov-17 07:09 27.955677 -68.447296 259 38125ft 393kts
27-Nov-17 07:10 27.936716 -68.568089 259 38124ft 393kts
27-Nov-17 07:11 27.917444 -68.689553 259 38123ft 393kts
27-Nov-17 07:12 27.897979 -68.811337 259 38121ft 393kts
27-Nov-17 07:13 27.878524 -68.932699 259 38119ft 393kts
27-Nov-17 07:14 27.859473 -69.053867 259 38119ft 392kts
27-Nov-17 07:15 27.839913 -69.175521 259 38119ft 392kts
27-Nov-17 07:16 27.820315 -69.296435 259 38118ft 391kts
27-Nov-17 07:17 27.800878 -69.417213 259 38117ft 390kts
27-Nov-17 07:18 27.780937 -69.538006 258 38105ft 390kts
27-Nov-17 07:19 27.764332 -69.638193 259 38104ft 389kts
27-Nov-17 07:20 27.744360 -69.758190 258 38110ft 389kts
27-Nov-17 07:21 27.724196 -69.878108 258 38114ft 389kts
27-Nov-17 07:22 27.700478 -70.018305 258 38114ft 389kts
27-Nov-17 07:23 27.680570 -70.137978 258 38113ft 388kts
27-Nov-17 07:24 27.663818 -70.237591 258 38112ft 388kts
27-Nov-17 07:25 27.643353 -70.357808 258 38112ft 389kts
27-Nov-17 07:26 27.622856 -70.477573 258 38107ft 389kts
27-Nov-17 07:27 27.602246 -70.597302 258 38104ft 389kts
27-Nov-17 07:28 27.581576 -70.717469 258 38103ft 390kts
27-Nov-17 07:29 27.560795 -70.837227 258 38103ft 390kts
27-Nov-17 07:30 27.539779 -70.956546 257 38102ft 390kts
27-Nov-17 07:31 27.518586 -71.076632 257 38102ft 390kts
27-Nov-17 07:32 27.497251 -71.196295 257 38101ft 390kts
27-Nov-17 07:33 27.475773 -71.315885 257 38101ft 390kts
27-Nov-17 07:34 27.454142 -71.435856 257 38089ft 390kts
27-Nov-17 07:35 27.433059 -71.555459 257 38086ft 389kts
27-Nov-17 07:36 27.411612 -71.674717 256 38086ft 389kts
27-Nov-17 07:37 27.389921 -71.794309 256 38086ft 389kts
27-Nov-17 07:38 27.368184 -71.913463 256 38086ft 389kts
27-Nov-17 07:39 27.346350 -72.032576 256 38086ft 389kts
27-Nov-17 07:40 27.324446 -72.151408 256 38086ft 388kts
27-Nov-17 07:41 27.302425 -72.270279 256 38080ft 389kts
27-Nov-17 07:42 27.280179 -72.389788 256 38104ft 389kts
27-Nov-17 07:43 27.257917 -72.508795 256 38104ft 389kts
27-Nov-17 07:44 27.235552 -72.627768 256 38105ft 390kts
27-Nov-17 07:45 27.212957 -72.747381 256 38105ft 390kts
27-Nov-17 07:46 27.190336 -72.866548 255 38106ft 390kts
27-Nov-17 07:47 27.167660 -72.985424 255 38107ft 390kts
27-Nov-17 07:48 27.144808 -73.104648 255 38107ft 389kts
27-Nov-17 07:49 27.121937 -73.223405 255 38108ft 389kts
27-Nov-17 07:50 27.099004 -73.341912 255 38108ft 390kts
27-Nov-17 07:51 27.075850 -73.461000 255 38109ft 390kts
27-Nov-17 07:52 27.052674 -73.579643 255 38110ft 390kts
27-Nov-17 07:53 27.029398 -73.698242 255 38110ft 390kts
27-Nov-17 07:54 27.005953 -73.817185 255 38111ft 389kts
27-Nov-17 07:55 26.982482 -73.935697 255 38112ft 390kts
27-Nov-17 07:56 26.958981 -74.054908 254 38112ft 390kts
27-Nov-17 07:57 26.935214 -74.173082 254 38114ft 389kts
27-Nov-17 07:58 26.909264 -74.290499 246 38113ft 387kts
27-Nov-17 07:59 26.853424 -74.394296 238 38115ft 389kts
27-Nov-17 08:00 26.794836 -74.495649 239 38115ft 390kts
27-Nov-17 08:01 26.736438 -74.597562 238 38131ft 389kts
27-Nov-17 08:02 26.677731 -74.699488 238 38112ft 389kts
27-Nov-17 08:03 26.619109 -74.801248 238 38113ft 390kts
27-Nov-17 08:04 26.560436 -74.903027 238 38121ft 390kts
27-Nov-17 08:05 26.501592 -75.004872 238 38121ft 388kts
27-Nov-17 08:06 26.443065 -75.106210 238 38122ft 389kts
27-Nov-17 08:07 26.384787 -75.207710 238 38125ft 389kts
27-Nov-17 08:08 26.325845 -75.309193 238 38125ft 389kts
27-Nov-17 08:09 26.266991 -75.410198 238 38126ft 389kts
27-Nov-17 08:10 26.208266 -75.510819 238 38126ft 389kts
27-Nov-17 08:11 26.149301 -75.612166 238 38126ft 389kts
27-Nov-17 08:12 26.090239 -75.712918 238 38126ft 389kts
27-Nov-17 08:13 26.031066 -75.813588 238 38126ft 389kts
27-Nov-17 08:14 25.973002 -75.915420 239 38126ft 389kts
27-Nov-17 08:15 25.916434 -76.017723 239 38126ft 389kts
27-Nov-17 08:16 25.859472 -76.119746 239 38126ft 389kts
27-Nov-17 08:17 25.802179 -76.221990 239 38126ft 389kts
27-Nov-17 08:18 25.743126 -76.322504 236 38125ft 390kts
27-Nov-17 08:19 25.680315 -76.421109 236 38124ft 391kts
27-Nov-17 08:20 25.618277 -76.519020 236 38125ft 390kts
27-Nov-17 08:21 25.555859 -76.617392 236 38124ft 390kts
27-Nov-17 08:22 25.493184 -76.716230 236 38124ft 392kts
27-Nov-17 08:23 25.430521 -76.814630 235 38123ft 392kts
27-Nov-17 08:24 25.367727 -76.912928 235 38122ft 392kts
27-Nov-17 08:25 25.304653 -77.011457 235 38121ft 392kts
27-Nov-17 08:26 25.241736 -77.109598 235 38121ft 391kts
27-Nov-17 08:27 25.179147 -77.208015 235 38120ft 393kts
27-Nov-17 08:28 25.115755 -77.306561 235 38120ft 393kts
27-Nov-17 08:29 25.052492 -77.404624 235 38119ft 393kts
27-Nov-17 08:30 25.018317 -77.516588 264 38112ft 401kts
27-Nov-17 08:31 25.016390 -77.639666 262 38120ft 400kts
27-Nov-17 08:32 25.010765 -77.762183 261 38120ft 400kts
27-Nov-17 08:33 25.005364 -77.885129 262 38120ft 400kts
27-Nov-17 08:34 24.999487 -78.007552 261 38119ft 400kts
27-Nov-17 08:35 24.993369 -78.130186 261 38118ft 402kts
27-Nov-17 08:36 24.987308 -78.253398 261 38121ft 401kts
27-Nov-17 08:37 24.981009 -78.376353 261 38123ft 402kts
27-Nov-17 08:38 24.975674 -78.481175 261 37911ft 402kts
27-Nov-17 08:39 24.969273 -78.602282 260 35555ft 399kts
27-Nov-17 08:40 24.962655 -78.725387 259 32790ft 418kts
27-Nov-17 08:41 24.955520 -78.858124 260 29879ft 447kts
27-Nov-17 08:42 24.948314 -78.993750 260 27324ft 427kts
27-Nov-17 08:43 24.941200 -79.119360 261 25032ft 405kts
27-Nov-17 08:44 24.975667 -79.238184 302 22680ft 427kts
27-Nov-17 08:45 25.054347 -79.331138 308 20472ft 400kts
27-Nov-17 08:46 25.132912 -79.422778 309 18148ft 408kts
27-Nov-17 08:47 25.208203 -79.510995 310 15962ft 386kts
27-Nov-17 08:48 25.280798 -79.596664 310 13840ft 378kts
27-Nov-17 08:49 25.350753 -79.679563 310 12450ft 351kts
27-Nov-17 08:50 25.411961 -79.755927 304 11744ft 323kts
27-Nov-17 08:51 25.464905 -79.838061 303 11047ft 330kts
27-Nov-17 08:52 25.517348 -79.917683 304 10370ft 305kts
27-Nov-17 08:53 25.564985 -79.990187 304 9751ft 279kts
27-Nov-17 08:54 25.610456 -80.059534 305 9158ft 279kts
27-Nov-17 08:55 25.655130 -80.129202 299 8564ft 276kts
27-Nov-17 08:56 25.681197 -80.208886 285 7976ft 274kts
27-Nov-17 08:57 25.702103 -80.289725 286 7394ft 272kts
27-Nov-17 08:58 25.708299 -80.372625 267 6808ft 270kts
27-Nov-17 08:59 25.704284 -80.455961 266 6130ft 270kts
27-Nov-17 09:00 25.700343 -80.535502 266 5245ft 248kts
27-Nov-17 09:01 25.717638 -80.601201 336 4073ft 230kts
27-Nov-17 09:02 25.775491 -80.597899 53 2997ft 202kts
27-Nov-17 09:03 25.777446 -80.537168 88 2981ft 200kts
27-Nov-17 09:04 25.779453 -80.475336 86 2890ft 204kts
27-Nov-17 09:05 25.782023 -80.413094 86 1816ft 191kts
27-Nov-17 09:06 25.784096 -80.363078 86 948ft 140kts
27-Nov-17 09:07 25.785807 -80.321936 86 227ft 130kts
27-Nov-17 09:08 25.786972 -80.294008 83 21ft 27kts
27-Nov-17 09:09 25.788314 -80.290101 76 21ft 9kts
27-Nov-17 09:10 25.788722 -80.287623 89 21ft 7kts
27-Nov-17 09:11 25.790027 -80.286882 355 21ft 5kts
27-Nov-17 09:12 25.793501 -80.285725 4 21ft 16kts
27-Nov-17 09:13 25.796578 -80.284495 83 21ft 11kts
27-Nov-17 09:14 25.795914 -80.282254 145 21ft 4kts
27-Nov-17 09:15 25.795657 -80.282075 148 21ft 0kts
27-Nov-17 09:16 25.795657 -80.282075 148 21ft 0kts
27-Nov-17 09:17 25.795657 -80.282075 148 21ft 0kts
27-Nov-17 09:18 25.795657 -80.282075 148 21ft 0kts

Navigation Log

Ident Type
Flight plan parsing failed, navigation log unavailable